sensor_id;sensor_type;location;lat;lon;timestamp;temperature;humidity
46508;DHT22;32223;53.654;10.014;2024-03-02T00:01:12;8.00;99.90
46508;DHT22;32223;53.654;10.014;2024-03-02T00:03:38;8.00;99.90
46508;DHT22;32223;53.654;10.014;2024-03-02T00:06:04;7.90;99.90
46508;DHT22;32223;53.654;10.014;2024-03-02T00:08:30;8.00;99.90
46508;DHT22;32223;53.654;10.014;2024-03-02T00:11:00;7.90;99.90
46508;DHT22;32223;53.654;10.014;2024-03-02T00:13:26;8.00;99.90
46508;DHT22;32223;53.654;10.014;2024-03-02T00:15:53;7.90;99.90
46508;DHT22;32223;53.654;10.014;2024-03-02T00:18:39;7.90;99.90
46508;DHT22;32223;53.654;10.014;2024-03-02T00:21:05;7.90;99.90
46508;DHT22;32223;53.654;10.014;2024-03-02T00:23:32;7.90;99.90
46508;DHT22;32223;53.654;10.014;2024-03-02T00:25:59;8.00;99.90
46508;DHT22;32223;53.654;10.014;2024-03-02T00:30:57;7.90;99.90
46508;DHT22;32223;53.654;10.014;2024-03-02T00:33:26;7.90;99.90
46508;DHT22;32223;53.654;10.014;2024-03-02T00:35:52;7.90;99.90
46508;DHT22;32223;53.654;10.014;2024-03-02T00:38:18;7.90;99.90
46508;DHT22;32223;53.654;10.014;2024-03-02T00:40:44;7.90;99.90
46508;DHT22;32223;53.654;10.014;2024-03-02T00:45:54;7.90;99.90
46508;DHT22;32223;53.654;10.014;2024-03-02T00:48:20;7.90;99.90
46508;DHT22;32223;53.654;10.014;2024-03-02T00:50:46;7.90;99.90
46508;DHT22;32223;53.654;10.014;2024-03-02T00:53:12;7.90;99.90
46508;DHT22;32223;53.654;10.014;2024-03-02T00:55:38;7.90;99.90
46508;DHT22;32223;53.654;10.014;2024-03-02T00:58:05;7.90;99.90
46508;DHT22;32223;53.654;10.014;2024-03-02T01:00:30;7.90;99.90
46508;DHT22;32223;53.654;10.014;2024-03-02T01:02:56;7.90;99.90
46508;DHT22;32223;53.654;10.014;2024-03-02T01:05:21;7.90;99.90
46508;DHT22;32223;53.654;10.014;2024-03-02T01:07:47;7.90;99.90
46508;DHT22;32223;53.654;10.014;2024-03-02T01:10:12;7.80;99.90
46508;DHT22;32223;53.654;10.014;2024-03-02T01:12:38;7.80;99.90
46508;DHT22;32223;53.654;10.014;2024-03-02T01:15:05;7.80;99.90
46508;DHT22;32223;53.654;10.014;2024-03-02T01:17:33;7.80;99.90
46508;DHT22;32223;53.654;10.014;2024-03-02T01:19:59;7.80;99.90
46508;DHT22;32223;53.654;10.014;2024-03-02T01:22:24;7.80;99.90
46508;DHT22;32223;53.654;10.014;2024-03-02T01:24:51;7.80;99.90
46508;DHT22;32223;53.654;10.014;2024-03-02T01:27:17;7.80;99.90
46508;DHT22;32223;53.654;10.014;2024-03-02T01:29:42;7.80;99.90
46508;DHT22;32223;53.654;10.014;2024-03-02T01:32:08;7.70;99.90
46508;DHT22;32223;53.654;10.014;2024-03-02T01:34:33;7.70;99.90
46508;DHT22;32223;53.654;10.014;2024-03-02T01:36:59;7.70;99.90
46508;DHT22;32223;53.654;10.014;2024-03-02T01:39:24;7.70;99.90
46508;DHT22;32223;53.654;10.014;2024-03-02T01:41:50;7.70;99.90
46508;DHT22;32223;53.654;10.014;2024-03-02T01:44:15;7.70;99.90
46508;DHT22;32223;53.654;10.014;2024-03-02T01:46:41;7.70;99.90
46508;DHT22;32223;53.654;10.014;2024-03-02T01:49:07;7.70;99.90
46508;DHT22;32223;53.654;10.014;2024-03-02T01:51:32;7.70;99.90
46508;DHT22;32223;53.654;10.014;2024-03-02T01:53:58;7.70;99.90
46508;DHT22;32223;53.654;10.014;2024-03-02T01:56:24;7.70;99.90
46508;DHT22;32223;53.654;10.014;2024-03-02T01:58:49;7.60;99.90
46508;DHT22;32223;53.654;10.014;2024-03-02T02:01:15;7.60;99.90
46508;DHT22;32223;53.654;10.014;2024-03-02T02:03:43;7.60;99.90
46508;DHT22;32223;53.654;10.014;2024-03-02T02:06:09;7.60;99.90
46508;DHT22;32223;53.654;10.014;2024-03-02T02:08:36;7.60;99.90
46508;DHT22;32223;53.654;10.014;2024-03-02T02:11:02;7.60;99.90
46508;DHT22;32223;53.654;10.014;2024-03-02T02:13:28;7.60;99.90
46508;DHT22;32223;53.654;10.014;2024-03-02T02:15:53;7.60;99.90
46508;DHT22;32223;53.654;10.014;2024-03-02T02:18:19;7.50;99.90
46508;DHT22;32223;53.654;10.014;2024-03-02T02:20:45;7.50;99.90
46508;DHT22;32223;53.654;10.014;2024-03-02T02:23:10;7.50;99.90
46508;DHT22;32223;53.654;10.014;2024-03-02T02:25:36;7.50;99.90
46508;DHT22;32223;53.654;10.014;2024-03-02T02:28:01;7.50;99.90
46508;DHT22;32223;53.654;10.014;2024-03-02T02:30:29;7.50;99.90
46508;DHT22;32223;53.654;10.014;2024-03-02T02:32:55;7.50;99.90
46508;DHT22;32223;53.654;10.014;2024-03-02T02:35:21;7.40;99.90
46508;DHT22;32223;53.654;10.014;2024-03-02T02:37:47;7.40;99.90
46508;DHT22;32223;53.654;10.014;2024-03-02T02:40:14;7.40;99.90
46508;DHT22;32223;53.654;10.014;2024-03-02T02:42:39;7.40;99.90
46508;DHT22;32223;53.654;10.014;2024-03-02T02:45:08;7.40;99.90
46508;DHT22;32223;53.654;10.014;2024-03-02T02:47:34;7.40;99.90
46508;DHT22;32223;53.654;10.014;2024-03-02T02:50:03;7.40;99.90
46508;DHT22;32223;53.654;10.014;2024-03-02T02:52:36;7.30;99.90
46508;DHT22;32223;53.654;10.014;2024-03-02T02:55:04;7.40;99.90
46508;DHT22;32223;53.654;10.014;2024-03-02T02:57:31;7.30;99.90
46508;DHT22;32223;53.654;10.014;2024-03-02T03:00:01;7.30;99.90
46508;DHT22;32223;53.654;10.014;2024-03-02T03:02:29;7.30;99.90
46508;DHT22;32223;53.654;10.014;2024-03-02T03:04:55;7.30;99.90
46508;DHT22;32223;53.654;10.014;2024-03-02T03:07:22;7.30;99.90
46508;DHT22;32223;53.654;10.014;2024-03-02T03:09:48;7.30;99.90
46508;DHT22;32223;53.654;10.014;2024-03-02T03:12:14;7.30;99.90
46508;DHT22;32223;53.654;10.014;2024-03-02T03:14:40;7.30;99.90
46508;DHT22;32223;53.654;10.014;2024-03-02T03:17:06;7.30;99.90
46508;DHT22;32223;53.654;10.014;2024-03-02T03:19:33;7.20;99.90
46508;DHT22;32223;53.654;10.014;2024-03-02T03:21:59;7.20;99.90
46508;DHT22;32223;53.654;10.014;2024-03-02T03:24:25;7.30;99.90
46508;DHT22;32223;53.654;10.014;2024-03-02T03:26:50;7.30;99.90
46508;DHT22;32223;53.654;10.014;2024-03-02T03:29:16;7.20;99.90
46508;DHT22;32223;53.654;10.014;2024-03-02T03:31:41;7.20;99.90
46508;DHT22;32223;53.654;10.014;2024-03-02T03:34:07;7.20;99.90
46508;DHT22;32223;53.654;10.014;2024-03-02T03:36:33;7.20;99.90
46508;DHT22;32223;53.654;10.014;2024-03-02T03:38:58;7.20;99.90
46508;DHT22;32223;53.654;10.014;2024-03-02T03:41:24;7.20;99.90
46508;DHT22;32223;53.654;10.014;2024-03-02T03:43:49;7.20;99.90
46508;DHT22;32223;53.654;10.014;2024-03-02T03:46:15;7.20;99.90
46508;DHT22;32223;53.654;10.014;2024-03-02T03:48:41;7.20;99.90
46508;DHT22;32223;53.654;10.014;2024-03-02T03:51:07;7.20;99.90
46508;DHT22;32223;53.654;10.014;2024-03-02T03:53:32;7.20;99.90
46508;DHT22;32223;53.654;10.014;2024-03-02T03:55:58;7.20;99.90
46508;DHT22;32223;53.654;10.014;2024-03-02T03:58:24;7.20;99.90
46508;DHT22;32223;53.654;10.014;2024-03-02T04:00:49;7.20;99.90
46508;DHT22;32223;53.654;10.014;2024-03-02T04:03:15;7.20;99.90
46508;DHT22;32223;53.654;10.014;2024-03-02T04:05:40;7.20;99.90
46508;DHT22;32223;53.654;10.014;2024-03-02T04:08:06;7.20;99.90
46508;DHT22;32223;53.654;10.014;2024-03-02T04:10:32;7.20;99.90
46508;DHT22;32223;53.654;10.014;2024-03-02T04:12:57;7.20;99.90
46508;DHT22;32223;53.654;10.014;2024-03-02T04:15:23;7.20;99.90
46508;DHT22;32223;53.654;10.014;2024-03-02T04:17:49;7.10;99.90
46508;DHT22;32223;53.654;10.014;2024-03-02T04:20:14;7.10;99.90
46508;DHT22;32223;53.654;10.014;2024-03-02T04:22:40;7.10;99.90
46508;DHT22;32223;53.654;10.014;2024-03-02T04:25:06;7.20;99.90
46508;DHT22;32223;53.654;10.014;2024-03-02T04:27:32;7.20;99.90
46508;DHT22;32223;53.654;10.014;2024-03-02T04:29:58;7.10;99.90
46508;DHT22;32223;53.654;10.014;2024-03-02T04:32:26;7.10;99.90
46508;DHT22;32223;53.654;10.014;2024-03-02T04:34:51;7.10;99.90
46508;DHT22;32223;53.654;10.014;2024-03-02T04:37:17;7.10;99.90
46508;DHT22;32223;53.654;10.014;2024-03-02T04:39:43;7.10;99.90
46508;DHT22;32223;53.654;10.014;2024-03-02T04:42:08;7.10;99.90
46508;DHT22;32223;53.654;10.014;2024-03-02T04:44:34;7.10;99.90
46508;DHT22;32223;53.654;10.014;2024-03-02T04:47:00;7.10;99.90
46508;DHT22;32223;53.654;10.014;2024-03-02T04:49:25;7.10;99.90
46508;DHT22;32223;53.654;10.014;2024-03-02T04:51:51;7.10;99.90
46508;DHT22;32223;53.654;10.014;2024-03-02T04:54:17;7.10;99.90
46508;DHT22;32223;53.654;10.014;2024-03-02T04:56:42;7.10;99.90
46508;DHT22;32223;53.654;10.014;2024-03-02T04:59:15;7.10;99.90
46508;DHT22;32223;53.654;10.014;2024-03-02T05:01:41;7.10;99.90
46508;DHT22;32223;53.654;10.014;2024-03-02T05:04:06;7.00;99.90
46508;DHT22;32223;53.654;10.014;2024-03-02T05:06:32;7.10;99.90
46508;DHT22;32223;53.654;10.014;2024-03-02T05:08:57;7.00;99.90
46508;DHT22;32223;53.654;10.014;2024-03-02T05:11:23;7.10;99.90
46508;DHT22;32223;53.654;10.014;2024-03-02T05:14:14;7.10;99.90
46508;DHT22;32223;53.654;10.014;2024-03-02T05:16:39;7.10;99.90
46508;DHT22;32223;53.654;10.014;2024-03-02T05:19:07;7.00;99.90
46508;DHT22;32223;53.654;10.014;2024-03-02T05:21:33;7.00;99.90
46508;DHT22;32223;53.654;10.014;2024-03-02T05:23:59;7.00;99.90
46508;DHT22;32223;53.654;10.014;2024-03-02T05:26:25;7.00;99.90
46508;DHT22;32223;53.654;10.014;2024-03-02T05:28:50;7.00;99.90
46508;DHT22;32223;53.654;10.014;2024-03-02T05:31:16;7.00;99.90
46508;DHT22;32223;53.654;10.014;2024-03-02T05:33:42;7.00;99.90
46508;DHT22;32223;53.654;10.014;2024-03-02T05:36:08;6.90;99.90
46508;DHT22;32223;53.654;10.014;2024-03-02T05:38:37;7.00;99.90
46508;DHT22;32223;53.654;10.014;2024-03-02T05:41:02;7.00;99.90
46508;DHT22;32223;53.654;10.014;2024-03-02T05:43:28;7.00;99.90
46508;DHT22;32223;53.654;10.014;2024-03-02T05:45:54;6.90;99.90
46508;DHT22;32223;53.654;10.014;2024-03-02T05:48:20;6.90;99.90
46508;DHT22;32223;53.654;10.014;2024-03-02T05:50:45;6.90;99.90
46508;DHT22;32223;53.654;10.014;2024-03-02T05:53:11;6.90;99.90
46508;DHT22;32223;53.654;10.014;2024-03-02T05:55:36;6.90;99.90
46508;DHT22;32223;53.654;10.014;2024-03-02T05:58:02;6.90;99.90
46508;DHT22;32223;53.654;10.014;2024-03-02T06:00:30;6.90;99.90
46508;DHT22;32223;53.654;10.014;2024-03-02T06:02:56;6.90;99.90
46508;DHT22;32223;53.654;10.014;2024-03-02T06:05:22;6.90;99.90
46508;DHT22;32223;53.654;10.014;2024-03-02T06:07:48;6.80;99.90
46508;DHT22;32223;53.654;10.014;2024-03-02T06:10:14;6.90;99.90
46508;DHT22;32223;53.654;10.014;2024-03-02T06:12:40;6.90;99.90
46508;DHT22;32223;53.654;10.014;2024-03-02T06:15:06;6.90;99.90
46508;DHT22;32223;53.654;10.014;2024-03-02T06:17:32;6.90;99.90
46508;DHT22;32223;53.654;10.014;2024-03-02T06:19:58;6.80;99.90
46508;DHT22;32223;53.654;10.014;2024-03-02T06:22:29;6.90;99.90
46508;DHT22;32223;53.654;10.014;2024-03-02T06:24:58;6.80;99.90
46508;DHT22;32223;53.654;10.014;2024-03-02T06:27:24;6.80;99.90
46508;DHT22;32223;53.654;10.014;2024-03-02T06:29:53;6.80;99.90
46508;DHT22;32223;53.654;10.014;2024-03-02T06:32:20;6.80;99.90
46508;DHT22;32223;53.654;10.014;2024-03-02T06:34:46;6.80;99.90
46508;DHT22;32223;53.654;10.014;2024-03-02T06:37:12;6.80;99.90
46508;DHT22;32223;53.654;10.014;2024-03-02T06:39:39;6.80;99.90
46508;DHT22;32223;53.654;10.014;2024-03-02T06:42:07;6.80;99.90
46508;DHT22;32223;53.654;10.014;2024-03-02T06:44:38;6.80;99.90
46508;DHT22;32223;53.654;10.014;2024-03-02T06:47:04;6.80;99.90
46508;DHT22;32223;53.654;10.014;2024-03-02T06:49:30;6.80;99.90
46508;DHT22;32223;53.654;10.014;2024-03-02T06:52:01;6.80;99.90
46508;DHT22;32223;53.654;10.014;2024-03-02T06:54:29;6.80;99.90
46508;DHT22;32223;53.654;10.014;2024-03-02T06:56:57;6.80;99.90
46508;DHT22;32223;53.654;10.014;2024-03-02T06:59:24;6.80;99.90
46508;DHT22;32223;53.654;10.014;2024-03-02T07:01:50;6.80;99.90
46508;DHT22;32223;53.654;10.014;2024-03-02T07:04:15;6.80;99.90
46508;DHT22;32223;53.654;10.014;2024-03-02T07:06:42;6.80;99.90
46508;DHT22;32223;53.654;10.014;2024-03-02T07:09:08;6.80;99.90
46508;DHT22;32223;53.654;10.014;2024-03-02T07:11:36;6.90;99.90
46508;DHT22;32223;53.654;10.014;2024-03-02T07:14:02;6.90;99.90
46508;DHT22;32223;53.654;10.014;2024-03-02T07:16:27;7.00;99.90
46508;DHT22;32223;53.654;10.014;2024-03-02T07:18:55;7.00;99.90
46508;DHT22;32223;53.654;10.014;2024-03-02T07:21:22;7.10;99.90
46508;DHT22;32223;53.654;10.014;2024-03-02T07:23:49;7.10;99.90
46508;DHT22;32223;53.654;10.014;2024-03-02T07:26:14;7.20;99.90
46508;DHT22;32223;53.654;10.014;2024-03-02T07:28:41;7.30;99.90
46508;DHT22;32223;53.654;10.014;2024-03-02T07:31:07;7.30;99.90
46508;DHT22;32223;53.654;10.014;2024-03-02T07:33:33;7.40;99.90
46508;DHT22;32223;53.654;10.014;2024-03-02T07:36:00;7.60;99.90
46508;DHT22;32223;53.654;10.014;2024-03-02T07:38:31;7.70;99.90
46508;DHT22;32223;53.654;10.014;2024-03-02T07:40:59;7.70;99.90
46508;DHT22;32223;53.654;10.014;2024-03-02T07:43:25;7.60;99.90
46508;DHT22;32223;53.654;10.014;2024-03-02T07:45:51;7.80;99.90
46508;DHT22;32223;53.654;10.014;2024-03-02T07:48:17;7.90;99.90
46508;DHT22;32223;53.654;10.014;2024-03-02T07:50:43;8.00;99.90
46508;DHT22;32223;53.654;10.014;2024-03-02T07:53:09;8.10;99.90
46508;DHT22;32223;53.654;10.014;2024-03-02T07:55:34;8.20;99.90
46508;DHT22;32223;53.654;10.014;2024-03-02T07:58:00;8.20;99.90
46508;DHT22;32223;53.654;10.014;2024-03-02T08:00:27;8.40;99.90
46508;DHT22;32223;53.654;10.014;2024-03-02T08:02:56;8.40;99.90
46508;DHT22;32223;53.654;10.014;2024-03-02T08:05:21;8.40;99.90
46508;DHT22;32223;53.654;10.014;2024-03-02T08:07:47;8.50;99.90
46508;DHT22;32223;53.654;10.014;2024-03-02T08:10:13;8.60;99.90
46508;DHT22;32223;53.654;10.014;2024-03-02T08:12:39;8.60;99.90
46508;DHT22;32223;53.654;10.014;2024-03-02T08:15:05;8.60;99.90
46508;DHT22;32223;53.654;10.014;2024-03-02T08:17:31;8.60;99.90
46508;DHT22;32223;53.654;10.014;2024-03-02T08:19:57;8.70;99.90
46508;DHT22;32223;53.654;10.014;2024-03-02T08:22:23;8.70;99.90
46508;DHT22;32223;53.654;10.014;2024-03-02T08:24:52;9.00;99.90
46508;DHT22;32223;53.654;10.014;2024-03-02T08:27:18;8.90;99.90
46508;DHT22;32223;53.654;10.014;2024-03-02T08:29:43;9.00;99.90
46508;DHT22;32223;53.654;10.014;2024-03-02T08:32:09;9.00;99.90
46508;DHT22;32223;53.654;10.014;2024-03-02T08:34:34;8.90;99.90
46508;DHT22;32223;53.654;10.014;2024-03-02T08:37:02;8.90;99.90
46508;DHT22;32223;53.654;10.014;2024-03-02T08:39:27;8.90;99.90
46508;DHT22;32223;53.654;10.014;2024-03-02T08:41:53;8.90;99.90
46508;DHT22;32223;53.654;10.014;2024-03-02T08:44:20;8.90;99.90
46508;DHT22;32223;53.654;10.014;2024-03-02T08:46:45;8.90;99.90
46508;DHT22;32223;53.654;10.014;2024-03-02T08:49:12;9.00;99.90
46508;DHT22;32223;53.654;10.014;2024-03-02T08:51:37;9.00;99.90
46508;DHT22;32223;53.654;10.014;2024-03-02T08:54:03;9.10;99.90
46508;DHT22;32223;53.654;10.014;2024-03-02T08:56:30;9.10;99.90
46508;DHT22;32223;53.654;10.014;2024-03-02T08:58:55;9.20;99.90
46508;DHT22;32223;53.654;10.014;2024-03-02T09:01:21;9.20;99.90
46508;DHT22;32223;53.654;10.014;2024-03-02T09:03:47;9.30;99.90
46508;DHT22;32223;53.654;10.014;2024-03-02T09:06:14;9.40;99.90
46508;DHT22;32223;53.654;10.014;2024-03-02T09:08:42;9.50;99.90
46508;DHT22;32223;53.654;10.014;2024-03-02T09:11:08;9.50;99.90
46508;DHT22;32223;53.654;10.014;2024-03-02T09:13:35;9.70;99.90
46508;DHT22;32223;53.654;10.014;2024-03-02T09:16:01;9.80;99.90
46508;DHT22;32223;53.654;10.014;2024-03-02T09:18:26;9.90;99.90
46508;DHT22;32223;53.654;10.014;2024-03-02T09:20:52;10.00;99.90
46508;DHT22;32223;53.654;10.014;2024-03-02T09:23:18;10.10;99.90
46508;DHT22;32223;53.654;10.014;2024-03-02T09:25:44;10.20;99.90
46508;DHT22;32223;53.654;10.014;2024-03-02T09:28:10;10.20;99.90
46508;DHT22;32223;53.654;10.014;2024-03-02T09:30:35;10.20;99.90
46508;DHT22;32223;53.654;10.014;2024-03-02T09:33:01;10.30;99.90
46508;DHT22;32223;53.654;10.014;2024-03-02T09:35:27;10.40;99.90
46508;DHT22;32223;53.654;10.014;2024-03-02T09:37:52;10.40;99.90
46508;DHT22;32223;53.654;10.014;2024-03-02T09:40:21;10.40;99.90
46508;DHT22;32223;53.654;10.014;2024-03-02T09:42:47;10.40;99.90
46508;DHT22;32223;53.654;10.014;2024-03-02T09:45:23;10.50;99.90
46508;DHT22;32223;53.654;10.014;2024-03-02T09:47:49;10.50;99.90
46508;DHT22;32223;53.654;10.014;2024-03-02T09:50:15;10.60;99.90
46508;DHT22;32223;53.654;10.014;2024-03-02T09:52:48;10.60;99.90
46508;DHT22;32223;53.654;10.014;2024-03-02T09:55:14;10.70;99.90
46508;DHT22;32223;53.654;10.014;2024-03-02T09:57:42;10.70;99.90
46508;DHT22;32223;53.654;10.014;2024-03-02T10:00:08;10.90;99.90
46508;DHT22;32223;53.654;10.014;2024-03-02T10:02:34;10.90;99.90
46508;DHT22;32223;53.654;10.014;2024-03-02T10:05:00;10.90;99.90
46508;DHT22;32223;53.654;10.014;2024-03-02T10:07:25;11.10;99.90
46508;DHT22;32223;53.654;10.014;2024-03-02T10:09:51;11.20;99.90
46508;DHT22;32223;53.654;10.014;2024-03-02T10:12:18;11.30;99.90
46508;DHT22;32223;53.654;10.014;2024-03-02T10:14:44;11.30;99.90
46508;DHT22;32223;53.654;10.014;2024-03-02T10:17:14;11.40;99.90
46508;DHT22;32223;53.654;10.014;2024-03-02T10:19:41;11.40;99.90
46508;DHT22;32223;53.654;10.014;2024-03-02T10:22:08;11.50;99.90
46508;DHT22;32223;53.654;10.014;2024-03-02T10:24:40;11.70;99.90
46508;DHT22;32223;53.654;10.014;2024-03-02T10:27:23;11.80;99.90
46508;DHT22;32223;53.654;10.014;2024-03-02T10:29:50;11.90;99.90
46508;DHT22;32223;53.654;10.014;2024-03-02T10:32:16;12.00;99.90
46508;DHT22;32223;53.654;10.014;2024-03-02T10:34:44;12.10;99.90
46508;DHT22;32223;53.654;10.014;2024-03-02T10:37:14;12.00;99.90
46508;DHT22;32223;53.654;10.014;2024-03-02T10:39:40;12.00;99.90
46508;DHT22;32223;53.654;10.014;2024-03-02T10:42:07;12.20;99.90
46508;DHT22;32223;53.654;10.014;2024-03-02T10:44:33;12.40;99.90
46508;DHT22;32223;53.654;10.014;2024-03-02T10:47:03;12.50;99.90
46508;DHT22;32223;53.654;10.014;2024-03-02T10:49:30;12.50;99.90
46508;DHT22;32223;53.654;10.014;2024-03-02T10:52:00;12.60;99.90
46508;DHT22;32223;53.654;10.014;2024-03-02T10:54:26;12.50;99.90
46508;DHT22;32223;53.654;10.014;2024-03-02T10:56:58;12.70;99.90
46508;DHT22;32223;53.654;10.014;2024-03-02T10:59:28;12.60;99.90
46508;DHT22;32223;53.654;10.014;2024-03-02T11:02:00;12.70;99.90
46508;DHT22;32223;53.654;10.014;2024-03-02T11:04:28;12.80;99.90
46508;DHT22;32223;53.654;10.014;2024-03-02T11:07:02;12.90;99.90
46508;DHT22;32223;53.654;10.014;2024-03-02T11:09:29;13.10;99.90
46508;DHT22;32223;53.654;10.014;2024-03-02T11:12:19;12.90;99.90
46508;DHT22;32223;53.654;10.014;2024-03-02T11:14:51;12.80;99.90
46508;DHT22;32223;53.654;10.014;2024-03-02T11:17:19;12.70;99.90
46508;DHT22;32223;53.654;10.014;2024-03-02T11:19:46;12.80;99.90
46508;DHT22;32223;53.654;10.014;2024-03-02T11:22:13;12.80;99.90
46508;DHT22;32223;53.654;10.014;2024-03-02T11:24:39;12.80;99.90
46508;DHT22;32223;53.654;10.014;2024-03-02T11:27:05;12.80;99.90
46508;DHT22;32223;53.654;10.014;2024-03-02T11:32:13;12.80;99.90
46508;DHT22;32223;53.654;10.014;2024-03-02T11:34:42;12.90;99.90
46508;DHT22;32223;53.654;10.014;2024-03-02T11:37:13;13.00;99.90
46508;DHT22;32223;53.654;10.014;2024-03-02T11:39:39;13.20;99.90
46508;DHT22;32223;53.654;10.014;2024-03-02T11:42:06;13.20;99.90
46508;DHT22;32223;53.654;10.014;2024-03-02T11:44:34;13.20;99.90
46508;DHT22;32223;53.654;10.014;2024-03-02T11:47:01;13.10;99.90
46508;DHT22;32223;53.654;10.014;2024-03-02T11:52:06;13.20;99.90
46508;DHT22;32223;53.654;10.014;2024-03-02T11:54:33;13.20;99.90
46508;DHT22;32223;53.654;10.014;2024-03-02T11:57:02;13.30;99.90
46508;DHT22;32223;53.654;10.014;2024-03-02T11:59:32;13.30;99.90
46508;DHT22;32223;53.654;10.014;2024-03-02T12:01:58;13.30;99.90
46508;DHT22;32223;53.654;10.014;2024-03-02T12:04:25;13.20;99.90
46508;DHT22;32223;53.654;10.014;2024-03-02T12:06:56;13.30;99.90
46508;DHT22;32223;53.654;10.014;2024-03-02T12:09:25;13.20;99.90
46508;DHT22;32223;53.654;10.014;2024-03-02T12:12:10;13.20;99.90
46508;DHT22;32223;53.654;10.014;2024-03-02T12:14:37;13.20;99.90
46508;DHT22;32223;53.654;10.014;2024-03-02T12:17:04;13.20;99.90
46508;DHT22;32223;53.654;10.014;2024-03-02T12:19:31;13.20;99.90
46508;DHT22;32223;53.654;10.014;2024-03-02T12:21:57;13.30;99.90
46508;DHT22;32223;53.654;10.014;2024-03-02T12:24:23;13.40;99.90
46508;DHT22;32223;53.654;10.014;2024-03-02T12:26:50;13.50;99.90
46508;DHT22;32223;53.654;10.014;2024-03-02T12:29:16;13.40;99.90
46508;DHT22;32223;53.654;10.014;2024-03-02T12:31:42;13.40;99.90
46508;DHT22;32223;53.654;10.014;2024-03-02T12:34:12;13.50;99.90
46508;DHT22;32223;53.654;10.014;2024-03-02T12:36:39;13.60;99.90
46508;DHT22;32223;53.654;10.014;2024-03-02T12:39:05;13.70;99.90
46508;DHT22;32223;53.654;10.014;2024-03-02T12:41:30;13.70;99.90
46508;DHT22;32223;53.654;10.014;2024-03-02T12:43:56;13.80;99.90
46508;DHT22;32223;53.654;10.014;2024-03-02T12:46:22;13.80;99.90
46508;DHT22;32223;53.654;10.014;2024-03-02T12:48:47;13.80;99.90
46508;DHT22;32223;53.654;10.014;2024-03-02T12:51:13;13.80;99.90
46508;DHT22;32223;53.654;10.014;2024-03-02T12:53:39;13.90;99.90
46508;DHT22;32223;53.654;10.014;2024-03-02T12:56:05;13.90;99.90
46508;DHT22;32223;53.654;10.014;2024-03-02T12:58:39;13.80;99.90
46508;DHT22;32223;53.654;10.014;2024-03-02T13:01:07;13.80;99.90
46508;DHT22;32223;53.654;10.014;2024-03-02T13:03:41;13.70;99.90
46508;DHT22;32223;53.654;10.014;2024-03-02T13:06:07;13.80;99.90
46508;DHT22;32223;53.654;10.014;2024-03-02T13:08:33;13.70;99.90
46508;DHT22;32223;53.654;10.014;2024-03-02T13:10:59;13.80;99.90
46508;DHT22;32223;53.654;10.014;2024-03-02T13:13:25;13.70;99.90
46508;DHT22;32223;53.654;10.014;2024-03-02T13:15:55;13.70;99.90
46508;DHT22;32223;53.654;10.014;2024-03-02T13:18:21;13.70;99.90
46508;DHT22;32223;53.654;10.014;2024-03-02T13:20:47;13.60;99.90
46508;DHT22;32223;53.654;10.014;2024-03-02T13:23:13;13.70;99.90
46508;DHT22;32223;53.654;10.014;2024-03-02T13:25:39;13.80;99.90
46508;DHT22;32223;53.654;10.014;2024-03-02T13:28:05;13.90;99.90
46508;DHT22;32223;53.654;10.014;2024-03-02T13:30:32;14.00;99.90
46508;DHT22;32223;53.654;10.014;2024-03-02T13:32:58;14.00;99.90
46508;DHT22;32223;53.654;10.014;2024-03-02T13:35:23;14.00;99.90
46508;DHT22;32223;53.654;10.014;2024-03-02T13:37:49;14.00;99.90
46508;DHT22;32223;53.654;10.014;2024-03-02T13:40:16;14.00;99.90
46508;DHT22;32223;53.654;10.014;2024-03-02T13:42:45;14.00;99.90
46508;DHT22;32223;53.654;10.014;2024-03-02T13:45:12;14.00;99.90
46508;DHT22;32223;53.654;10.014;2024-03-02T13:47:38;14.10;99.90
46508;DHT22;32223;53.654;10.014;2024-03-02T13:50:04;14.40;99.90
46508;DHT22;32223;53.654;10.014;2024-03-02T13:52:30;14.90;99.90
46508;DHT22;32223;53.654;10.014;2024-03-02T13:54:56;15.80;99.90
46508;DHT22;32223;53.654;10.014;2024-03-02T13:57:22;16.80;99.90
46508;DHT22;32223;53.654;10.014;2024-03-02T13:59:47;17.90;99.90
46508;DHT22;32223;53.654;10.014;2024-03-02T14:02:13;18.60;99.90
46508;DHT22;32223;53.654;10.014;2024-03-02T14:04:39;18.60;99.90
46508;DHT22;32223;53.654;10.014;2024-03-02T14:07:05;18.50;99.90
46508;DHT22;32223;53.654;10.014;2024-03-02T14:09:34;18.30;99.90
46508;DHT22;32223;53.654;10.014;2024-03-02T14:11:59;18.20;99.90
46508;DHT22;32223;53.654;10.014;2024-03-02T14:14:28;18.40;99.90
46508;DHT22;32223;53.654;10.014;2024-03-02T14:16:57;18.80;99.90
46508;DHT22;32223;53.654;10.014;2024-03-02T14:19:29;19.50;99.90
46508;DHT22;32223;53.654;10.014;2024-03-02T14:21:54;20.20;99.90
46508;DHT22;32223;53.654;10.014;2024-03-02T14:24:20;21.00;99.90
46508;DHT22;32223;53.654;10.014;2024-03-02T14:26:49;21.40;99.90
46508;DHT22;32223;53.654;10.014;2024-03-02T14:29:14;20.80;98.90
46508;DHT22;32223;53.654;10.014;2024-03-02T14:31:40;19.90;99.20
46508;DHT22;32223;53.654;10.014;2024-03-02T14:34:06;19.10;99.90
46508;DHT22;32223;53.654;10.014;2024-03-02T14:36:31;18.20;99.90
46508;DHT22;32223;53.654;10.014;2024-03-02T14:38:57;17.60;99.90
46508;DHT22;32223;53.654;10.014;2024-03-02T14:41:23;17.10;99.90
46508;DHT22;32223;53.654;10.014;2024-03-02T14:43:50;17.10;99.90
46508;DHT22;32223;53.654;10.014;2024-03-02T14:46:15;16.90;99.90
46508;DHT22;32223;53.654;10.014;2024-03-02T14:48:43;16.90;99.90
46508;DHT22;32223;53.654;10.014;2024-03-02T14:51:09;16.80;99.90
46508;DHT22;32223;53.654;10.014;2024-03-02T14:53:36;16.70;99.90
46508;DHT22;32223;53.654;10.014;2024-03-02T14:56:04;16.70;99.90
46508;DHT22;32223;53.654;10.014;2024-03-02T14:58:29;16.50;99.90
46508;DHT22;32223;53.654;10.014;2024-03-02T15:00:55;16.30;99.90
46508;DHT22;32223;53.654;10.014;2024-03-02T15:03:21;16.00;99.90
46508;DHT22;32223;53.654;10.014;2024-03-02T15:05:46;15.80;99.90
46508;DHT22;32223;53.654;10.014;2024-03-02T15:08:13;15.50;99.90
46508;DHT22;32223;53.654;10.014;2024-03-02T15:10:38;15.40;99.90
46508;DHT22;32223;53.654;10.014;2024-03-02T15:13:04;15.30;99.90
46508;DHT22;32223;53.654;10.014;2024-03-02T15:15:29;15.50;99.90
46508;DHT22;32223;53.654;10.014;2024-03-02T15:17:55;15.90;99.90
46508;DHT22;32223;53.654;10.014;2024-03-02T15:20:21;16.30;99.90
46508;DHT22;32223;53.654;10.014;2024-03-02T15:22:47;16.50;99.90
46508;DHT22;32223;53.654;10.014;2024-03-02T15:25:12;16.40;99.90
46508;DHT22;32223;53.654;10.014;2024-03-02T15:27:38;16.00;99.90
46508;DHT22;32223;53.654;10.014;2024-03-02T15:30:07;15.90;99.90
46508;DHT22;32223;53.654;10.014;2024-03-02T15:32:33;15.70;99.90